sensor_id;sensor_type;location;lat;lon;timestamp;P1;durP1;ratioP1;P2;durP2;ratioP2
48859;SDS011;34679;51.436;-2.518;2022-12-16T00:01:49;31.02;;;14.27;;
48859;SDS011;34679;51.436;-2.518;2022-12-16T00:04:15;26.55;;;13.57;;
48859;SDS011;34679;51.436;-2.518;2022-12-16T00:06:42;29.40;;;14.13;;
48859;SDS011;34679;51.436;-2.518;2022-12-16T00:09:08;27.70;;;14.02;;
48859;SDS011;34679;51.436;-2.518;2022-12-16T00:11:34;30.95;;;14.27;;
48859;SDS011;34679;51.436;-2.518;2022-12-16T00:13:59;26.45;;;13.73;;
48859;SDS011;34679;51.436;-2.518;2022-12-16T00:16:25;24.42;;;13.45;;
48859;SDS011;34679;51.436;-2.518;2022-12-16T00:18:51;28.20;;;13.25;;
48859;SDS011;34679;51.436;-2.518;2022-12-16T00:21:17;25.08;;;13.25;;
48859;SDS011;34679;51.436;-2.518;2022-12-16T00:23:43;25.98;;;13.43;;
48859;SDS011;34679;51.436;-2.518;2022-12-16T00:26:10;22.88;;;12.95;;
48859;SDS011;34679;51.436;-2.518;2022-12-16T00:28:36;27.73;;;14.10;;
48859;SDS011;34679;51.436;-2.518;2022-12-16T00:31:03;24.17;;;12.75;;
48859;SDS011;34679;51.436;-2.518;2022-12-16T00:33:29;22.65;;;13.98;;
48859;SDS011;34679;51.436;-2.518;2022-12-16T00:35:55;27.10;;;13.07;;
48859;SDS011;34679;51.436;-2.518;2022-12-16T00:38:21;47.25;;;18.08;;
48859;SDS011;34679;51.436;-2.518;2022-12-16T00:40:49;51.38;;;19.80;;
48859;SDS011;34679;51.436;-2.518;2022-12-16T00:43:15;63.10;;;20.83;;
48859;SDS011;34679;51.436;-2.518;2022-12-16T00:45:40;59.78;;;22.58;;
48859;SDS011;34679;51.436;-2.518;2022-12-16T00:48:06;70.38;;;23.65;;
48859;SDS011;34679;51.436;-2.518;2022-12-16T00:50:32;52.80;;;20.58;;
48859;SDS011;34679;51.436;-2.518;2022-12-16T00:52:59;66.55;;;23.85;;
48859;SDS011;34679;51.436;-2.518;2022-12-16T00:55:25;52.25;;;18.95;;
48859;SDS011;34679;51.436;-2.518;2022-12-16T00:57:51;48.92;;;19.25;;
48859;SDS011;34679;51.436;-2.518;2022-12-16T01:00:17;36.47;;;16.52;;
48859;SDS011;34679;51.436;-2.518;2022-12-16T01:02:44;36.33;;;16.55;;
48859;SDS011;34679;51.436;-2.518;2022-12-16T01:05:12;30.17;;;15.40;;
48859;SDS011;34679;51.436;-2.518;2022-12-16T01:07:39;37.10;;;15.70;;
48859;SDS011;34679;51.436;-2.518;2022-12-16T01:10:06;38.90;;;17.15;;
48859;SDS011;34679;51.436;-2.518;2022-12-16T01:12:33;38.80;;;15.85;;
48859;SDS011;34679;51.436;-2.518;2022-12-16T01:14:59;36.55;;;16.10;;
48859;SDS011;34679;51.436;-2.518;2022-12-16T01:17:25;35.60;;;15.75;;
48859;SDS011;34679;51.436;-2.518;2022-12-16T01:19:51;41.33;;;16.02;;
48859;SDS011;34679;51.436;-2.518;2022-12-16T01:22:18;44.45;;;17.05;;
48859;SDS011;34679;51.436;-2.518;2022-12-16T01:24:45;32.85;;;16.42;;
48859;SDS011;34679;51.436;-2.518;2022-12-16T01:27:11;39.28;;;17.58;;
48859;SDS011;34679;51.436;-2.518;2022-12-16T01:29:37;37.55;;;16.85;;
48859;SDS011;34679;51.436;-2.518;2022-12-16T01:32:03;38.75;;;18.27;;
48859;SDS011;34679;51.436;-2.518;2022-12-16T01:34:30;27.27;;;15.60;;
48859;SDS011;34679;51.436;-2.518;2022-12-16T01:36:56;37.92;;;16.83;;
48859;SDS011;34679;51.436;-2.518;2022-12-16T01:39:22;50.85;;;22.63;;
48859;SDS011;34679;51.436;-2.518;2022-12-16T01:41:49;42.03;;;18.92;;
48859;SDS011;34679;51.436;-2.518;2022-12-16T01:46:42;50.00;;;21.73;;
48859;SDS011;34679;51.436;-2.518;2022-12-16T01:49:21;49.30;;;19.75;;
48859;SDS011;34679;51.436;-2.518;2022-12-16T01:51:50;33.45;;;16.50;;
48859;SDS011;34679;51.436;-2.518;2022-12-16T01:54:20;34.95;;;16.95;;
48859;SDS011;34679;51.436;-2.518;2022-12-16T01:56:50;36.08;;;16.52;;
48859;SDS011;34679;51.436;-2.518;2022-12-16T01:59:24;29.90;;;14.48;;
48859;SDS011;34679;51.436;-2.518;2022-12-16T02:01:52;20.83;;;13.18;;
48859;SDS011;34679;51.436;-2.518;2022-12-16T02:04:18;30.98;;;15.20;;
48859;SDS011;34679;51.436;-2.518;2022-12-16T02:06:44;38.72;;;16.48;;
48859;SDS011;34679;51.436;-2.518;2022-12-16T02:09:10;34.42;;;15.90;;
48859;SDS011;34679;51.436;-2.518;2022-12-16T02:35:00;35.33;;;15.35;;
48859;SDS011;34679;51.436;-2.518;2022-12-16T02:40:35;28.92;;;13.88;;
48859;SDS011;34679;51.436;-2.518;2022-12-16T02:43:08;25.88;;;13.88;;
48859;SDS011;34679;51.436;-2.518;2022-12-16T02:45:55;29.30;;;14.82;;
48859;SDS011;34679;51.436;-2.518;2022-12-16T02:48:22;30.23;;;13.80;;
48859;SDS011;34679;51.436;-2.518;2022-12-16T02:50:48;23.73;;;13.48;;
48859;SDS011;34679;51.436;-2.518;2022-12-16T02:53:16;26.73;;;14.25;;
48859;SDS011;34679;51.436;-2.518;2022-12-16T02:58:32;25.10;;;13.98;;
48859;SDS011;34679;51.436;-2.518;2022-12-16T03:03:59;22.77;;;13.00;;
48859;SDS011;34679;51.436;-2.518;2022-12-16T03:06:29;22.00;;;12.40;;
48859;SDS011;34679;51.436;-2.518;2022-12-16T03:08:57;26.67;;;13.35;;
48859;SDS011;34679;51.436;-2.518;2022-12-16T03:11:27;26.08;;;13.55;;
48859;SDS011;34679;51.436;-2.518;2022-12-16T03:13:55;24.33;;;12.60;;
48859;SDS011;34679;51.436;-2.518;2022-12-16T03:16:22;36.90;;;14.35;;
48859;SDS011;34679;51.436;-2.518;2022-12-16T03:18:52;28.58;;;13.70;;
48859;SDS011;34679;51.436;-2.518;2022-12-16T03:21:21;23.50;;;13.18;;
48859;SDS011;34679;51.436;-2.518;2022-12-16T03:23:54;22.75;;;12.65;;
48859;SDS011;34679;51.436;-2.518;2022-12-16T03:26:27;45.97;;;14.40;;
48859;SDS011;34679;51.436;-2.518;2022-12-16T03:29:12;26.55;;;13.10;;
48859;SDS011;34679;51.436;-2.518;2022-12-16T03:31:50;26.48;;;13.32;;
48859;SDS011;34679;51.436;-2.518;2022-12-16T03:34:43;21.65;;;13.52;;
48859;SDS011;34679;51.436;-2.518;2022-12-16T03:37:17;21.65;;;12.27;;
48859;SDS011;34679;51.436;-2.518;2022-12-16T03:39:48;27.63;;;12.50;;
48859;SDS011;34679;51.436;-2.518;2022-12-16T03:42:17;24.27;;;13.02;;
48859;SDS011;34679;51.436;-2.518;2022-12-16T03:44:43;24.60;;;13.00;;
48859;SDS011;34679;51.436;-2.518;2022-12-16T03:47:13;25.92;;;11.73;;
48859;SDS011;34679;51.436;-2.518;2022-12-16T03:49:38;27.48;;;12.30;;
48859;SDS011;34679;51.436;-2.518;2022-12-16T03:52:05;22.48;;;12.35;;
48859;SDS011;34679;51.436;-2.518;2022-12-16T03:54:31;21.63;;;11.57;;
48859;SDS011;34679;51.436;-2.518;2022-12-16T03:56:57;28.63;;;12.82;;
48859;SDS011;34679;51.436;-2.518;2022-12-16T03:59:23;26.85;;;12.52;;
48859;SDS011;34679;51.436;-2.518;2022-12-16T04:01:49;20.80;;;12.20;;
48859;SDS011;34679;51.436;-2.518;2022-12-16T04:04:16;26.15;;;12.18;;
48859;SDS011;34679;51.436;-2.518;2022-12-16T04:06:42;26.77;;;12.02;;
48859;SDS011;34679;51.436;-2.518;2022-12-16T04:09:08;18.10;;;11.40;;
48859;SDS011;34679;51.436;-2.518;2022-12-16T04:11:33;20.67;;;12.10;;
48859;SDS011;34679;51.436;-2.518;2022-12-16T04:14:17;28.60;;;13.48;;
48859;SDS011;34679;51.436;-2.518;2022-12-16T04:17:02;21.25;;;11.93;;
48859;SDS011;34679;51.436;-2.518;2022-12-16T04:19:47;26.98;;;13.88;;
48859;SDS011;34679;51.436;-2.518;2022-12-16T04:22:51;24.80;;;12.40;;
48859;SDS011;34679;51.436;-2.518;2022-12-16T04:25:35;33.25;;;14.95;;
48859;SDS011;34679;51.436;-2.518;2022-12-16T04:28:02;26.58;;;13.93;;
48859;SDS011;34679;51.436;-2.518;2022-12-16T04:30:28;31.10;;;13.80;;
48859;SDS011;34679;51.436;-2.518;2022-12-16T04:32:59;23.83;;;13.45;;
48859;SDS011;34679;51.436;-2.518;2022-12-16T04:35:46;26.80;;;13.13;;
48859;SDS011;34679;51.436;-2.518;2022-12-16T04:38:30;27.35;;;14.77;;
48859;SDS011;34679;51.436;-2.518;2022-12-16T04:41:15;28.33;;;14.13;;
48859;SDS011;34679;51.436;-2.518;2022-12-16T04:44:00;25.15;;;12.80;;
48859;SDS011;34679;51.436;-2.518;2022-12-16T04:46:44;25.75;;;13.85;;
48859;SDS011;34679;51.436;-2.518;2022-12-16T04:49:29;30.17;;;13.73;;
48859;SDS011;34679;51.436;-2.518;2022-12-16T04:52:13;28.35;;;13.27;;
48859;SDS011;34679;51.436;-2.518;2022-12-16T04:54:58;29.45;;;14.77;;
48859;SDS011;34679;51.436;-2.518;2022-12-16T04:57:50;29.83;;;14.02;;
48859;SDS011;34679;51.436;-2.518;2022-12-16T05:00:38;25.80;;;13.75;;
48859;SDS011;34679;51.436;-2.518;2022-12-16T05:03:23;21.95;;;12.82;;
48859;SDS011;34679;51.436;-2.518;2022-12-16T05:06:07;27.30;;;13.07;;
48859;SDS011;34679;51.436;-2.518;2022-12-16T05:08:52;27.42;;;12.48;;
48859;SDS011;34679;51.436;-2.518;2022-12-16T05:11:36;21.92;;;12.82;;
48859;SDS011;34679;51.436;-2.518;2022-12-16T05:14:21;22.75;;;12.73;;
48859;SDS011;34679;51.436;-2.518;2022-12-16T05:17:05;23.50;;;13.27;;
48859;SDS011;34679;51.436;-2.518;2022-12-16T05:19:49;21.20;;;11.07;;
48859;SDS011;34679;51.436;-2.518;2022-12-16T05:22:33;37.05;;;13.82;;
48859;SDS011;34679;51.436;-2.518;2022-12-16T05:25:17;18.50;;;10.75;;
48859;SDS011;34679;51.436;-2.518;2022-12-16T05:28:01;20.67;;;11.70;;
48859;SDS011;34679;51.436;-2.518;2022-12-16T05:30:45;25.63;;;11.77;;
48859;SDS011;34679;51.436;-2.518;2022-12-16T05:33:29;23.15;;;11.93;;
48859;SDS011;34679;51.436;-2.518;2022-12-16T05:36:13;24.85;;;11.95;;
48859;SDS011;34679;51.436;-2.518;2022-12-16T05:38:57;20.80;;;11.20;;
48859;SDS011;34679;51.436;-2.518;2022-12-16T05:41:41;33.28;;;12.63;;
48859;SDS011;34679;51.436;-2.518;2022-12-16T05:44:26;21.85;;;12.23;;
48859;SDS011;34679;51.436;-2.518;2022-12-16T05:47:10;23.02;;;12.77;;
48859;SDS011;34679;51.436;-2.518;2022-12-16T05:49:54;23.00;;;12.02;;
48859;SDS011;34679;51.436;-2.518;2022-12-16T05:52:38;22.58;;;12.02;;
48859;SDS011;34679;51.436;-2.518;2022-12-16T05:55:23;28.20;;;13.10;;
48859;SDS011;34679;51.436;-2.518;2022-12-16T05:58:07;17.70;;;10.85;;
48859;SDS011;34679;51.436;-2.518;2022-12-16T06:00:51;21.67;;;11.13;;
48859;SDS011;34679;51.436;-2.518;2022-12-16T06:03:36;28.80;;;13.50;;
48859;SDS011;34679;51.436;-2.518;2022-12-16T06:06:21;27.92;;;13.52;;
48859;SDS011;34679;51.436;-2.518;2022-12-16T06:09:05;27.67;;;12.52;;
48859;SDS011;34679;51.436;-2.518;2022-12-16T06:11:49;28.60;;;13.52;;
48859;SDS011;34679;51.436;-2.518;2022-12-16T06:14:34;19.50;;;12.32;;
48859;SDS011;34679;51.436;-2.518;2022-12-16T06:17:20;25.15;;;13.48;;
48859;SDS011;34679;51.436;-2.518;2022-12-16T06:20:04;25.27;;;12.40;;
48859;SDS011;34679;51.436;-2.518;2022-12-16T06:22:52;21.33;;;11.88;;
48859;SDS011;34679;51.436;-2.518;2022-12-16T06:25:37;28.67;;;11.30;;
48859;SDS011;34679;51.436;-2.518;2022-12-16T06:28:22;24.13;;;12.55;;
48859;SDS011;34679;51.436;-2.518;2022-12-16T06:31:06;20.48;;;11.93;;
48859;SDS011;34679;51.436;-2.518;2022-12-16T06:33:51;22.30;;;12.30;;
48859;SDS011;34679;51.436;-2.518;2022-12-16T06:36:35;21.35;;;11.63;;
48859;SDS011;34679;51.436;-2.518;2022-12-16T06:39:19;25.08;;;12.68;;
48859;SDS011;34679;51.436;-2.518;2022-12-16T06:42:04;25.00;;;12.73;;
48859;SDS011;34679;51.436;-2.518;2022-12-16T06:44:48;31.83;;;15.05;;
48859;SDS011;34679;51.436;-2.518;2022-12-16T06:47:32;18.00;;;11.45;;
48859;SDS011;34679;51.436;-2.518;2022-12-16T06:50:16;25.02;;;13.30;;
48859;SDS011;34679;51.436;-2.518;2022-12-16T06:53:00;19.85;;;11.57;;
48859;SDS011;34679;51.436;-2.518;2022-12-16T06:55:45;26.92;;;13.73;;
48859;SDS011;34679;51.436;-2.518;2022-12-16T06:58:29;32.95;;;12.68;;
48859;SDS011;34679;51.436;-2.518;2022-12-16T07:01:13;24.92;;;12.50;;
48859;SDS011;34679;51.436;-2.518;2022-12-16T07:03:58;27.17;;;13.65;;
48859;SDS011;34679;51.436;-2.518;2022-12-16T07:06:41;26.40;;;13.82;;
48859;SDS011;34679;51.436;-2.518;2022-12-16T07:09:25;26.17;;;13.98;;
48859;SDS011;34679;51.436;-2.518;2022-12-16T07:12:09;24.50;;;13.98;;
48859;SDS011;34679;51.436;-2.518;2022-12-16T07:14:54;22.10;;;13.13;;
48859;SDS011;34679;51.436;-2.518;2022-12-16T07:17:38;25.50;;;14.15;;
48859;SDS011;34679;51.436;-2.518;2022-12-16T07:20:23;23.52;;;12.48;;
48859;SDS011;34679;51.436;-2.518;2022-12-16T07:23:07;25.73;;;14.45;;
48859;SDS011;34679;51.436;-2.518;2022-12-16T07:25:52;27.23;;;13.50;;
48859;SDS011;34679;51.436;-2.518;2022-12-16T07:28:36;28.58;;;14.38;;
48859;SDS011;34679;51.436;-2.518;2022-12-16T07:31:20;27.90;;;14.63;;
48859;SDS011;34679;51.436;-2.518;2022-12-16T07:34:04;25.20;;;14.25;;
48859;SDS011;34679;51.436;-2.518;2022-12-16T07:36:48;23.55;;;13.57;;
48859;SDS011;34679;51.436;-2.518;2022-12-16T07:39:32;25.70;;;13.98;;
48859;SDS011;34679;51.436;-2.518;2022-12-16T07:42:17;23.45;;;13.55;;
48859;SDS011;34679;51.436;-2.518;2022-12-16T07:45:01;30.90;;;13.82;;
48859;SDS011;34679;51.436;-2.518;2022-12-16T07:47:47;35.75;;;13.88;;
48859;SDS011;34679;51.436;-2.518;2022-12-16T07:50:32;26.60;;;12.70;;
48859;SDS011;34679;51.436;-2.518;2022-12-16T07:53:16;24.23;;;13.05;;
48859;SDS011;34679;51.436;-2.518;2022-12-16T07:56:01;25.38;;;12.60;;
48859;SDS011;34679;51.436;-2.518;2022-12-16T07:58:45;32.63;;;13.30;;
48859;SDS011;34679;51.436;-2.518;2022-12-16T08:01:28;32.55;;;14.40;;
48859;SDS011;34679;51.436;-2.518;2022-12-16T08:04:13;21.38;;;12.10;;
48859;SDS011;34679;51.436;-2.518;2022-12-16T08:06:57;30.90;;;14.88;;
48859;SDS011;34679;51.436;-2.518;2022-12-16T08:09:41;32.78;;;14.27;;
48859;SDS011;34679;51.436;-2.518;2022-12-16T08:12:25;24.92;;;14.68;;
48859;SDS011;34679;51.436;-2.518;2022-12-16T08:15:09;27.23;;;13.85;;
48859;SDS011;34679;51.436;-2.518;2022-12-16T08:17:53;32.10;;;14.75;;
48859;SDS011;34679;51.436;-2.518;2022-12-16T08:20:37;25.17;;;13.23;;
48859;SDS011;34679;51.436;-2.518;2022-12-16T08:23:21;27.33;;;13.02;;
48859;SDS011;34679;51.436;-2.518;2022-12-16T08:26:06;25.85;;;12.75;;
48859;SDS011;34679;51.436;-2.518;2022-12-16T08:28:50;26.85;;;13.20;;
48859;SDS011;34679;51.436;-2.518;2022-12-16T08:31:34;24.35;;;13.00;;
48859;SDS011;34679;51.436;-2.518;2022-12-16T08:34:18;22.83;;;12.95;;
48859;SDS011;34679;51.436;-2.518;2022-12-16T08:37:03;20.85;;;13.23;;
48859;SDS011;34679;51.436;-2.518;2022-12-16T08:39:47;32.20;;;13.90;;
48859;SDS011;34679;51.436;-2.518;2022-12-16T08:42:31;32.58;;;13.18;;
48859;SDS011;34679;51.436;-2.518;2022-12-16T08:45:16;28.33;;;13.73;;
48859;SDS011;34679;51.436;-2.518;2022-12-16T08:48:00;24.73;;;13.75;;
48859;SDS011;34679;51.436;-2.518;2022-12-16T08:50:44;26.70;;;13.75;;
48859;SDS011;34679;51.436;-2.518;2022-12-16T08:53:28;29.35;;;14.73;;
48859;SDS011;34679;51.436;-2.518;2022-12-16T08:56:12;27.27;;;13.98;;
48859;SDS011;34679;51.436;-2.518;2022-12-16T08:58:56;23.58;;;13.70;;
48859;SDS011;34679;51.436;-2.518;2022-12-16T09:01:40;27.30;;;14.55;;
48859;SDS011;34679;51.436;-2.518;2022-12-16T09:04:24;24.38;;;13.00;;
48859;SDS011;34679;51.436;-2.518;2022-12-16T09:07:09;30.27;;;12.38;;
48859;SDS011;34679;51.436;-2.518;2022-12-16T09:09:54;29.17;;;15.20;;
48859;SDS011;34679;51.436;-2.518;2022-12-16T09:12:38;29.10;;;13.65;;
48859;SDS011;34679;51.436;-2.518;2022-12-16T09:15:22;32.20;;;16.27;;
48859;SDS011;34679;51.436;-2.518;2022-12-16T09:18:06;31.00;;;16.48;;
48859;SDS011;34679;51.436;-2.518;2022-12-16T09:20:50;28.00;;;15.38;;
48859;SDS011;34679;51.436;-2.518;2022-12-16T09:23:35;28.77;;;14.95;;
48859;SDS011;34679;51.436;-2.518;2022-12-16T09:26:20;42.38;;;16.17;;
48859;SDS011;34679;51.436;-2.518;2022-12-16T09:29:04;31.13;;;15.90;;
48859;SDS011;34679;51.436;-2.518;2022-12-16T09:31:48;29.83;;;16.15;;
48859;SDS011;34679;51.436;-2.518;2022-12-16T09:34:32;37.60;;;18.35;;
48859;SDS011;34679;51.436;-2.518;2022-12-16T09:37:17;44.05;;;17.52;;
48859;SDS011;34679;51.436;-2.518;2022-12-16T09:40:02;35.15;;;17.73;;
48859;SDS011;34679;51.436;-2.518;2022-12-16T09:48:35;33.38;;;17.98;;
48859;SDS011;34679;51.436;-2.518;2022-12-16T09:51:42;260.80;;;27.23;;
48859;SDS011;34679;51.436;-2.518;2022-12-16T09:54:28;31.33;;;16.63;;
48859;SDS011;34679;51.436;-2.518;2022-12-16T09:57:17;87.68;;;19.15;;
48859;SDS011;34679;51.436;-2.518;2022-12-16T10:00:04;32.33;;;18.75;;
48859;SDS011;34679;51.436;-2.518;2022-12-16T10:03:04;36.63;;;17.65;;
48859;SDS011;34679;51.436;-2.518;2022-12-16T10:09:26;32.25;;;16.88;;
48859;SDS011;34679;51.436;-2.518;2022-12-16T10:21:22;32.50;;;17.00;;
48859;SDS011;34679;51.436;-2.518;2022-12-16T10:27:15;32.88;;;18.30;;
48859;SDS011;34679;51.436;-2.518;2022-12-16T10:30:02;30.48;;;19.15;;
48859;SDS011;34679;51.436;-2.518;2022-12-16T10:32:54;31.98;;;19.67;;
48859;SDS011;34679;51.436;-2.518;2022-12-16T10:35:44;34.47;;;19.42;;
48859;SDS011;34679;51.436;-2.518;2022-12-16T10:41:21;37.00;;;20.15;;
48859;SDS011;34679;51.436;-2.518;2022-12-16T10:47:40;36.78;;;21.40;;
48859;SDS011;34679;51.436;-2.518;2022-12-16T10:50:24;39.63;;;21.83;;
48859;SDS011;34679;51.436;-2.518;2022-12-16T10:59:02;30.48;;;19.58;;
48859;SDS011;34679;51.436;-2.518;2022-12-16T11:01:59;38.38;;;21.00;;
48859;SDS011;34679;51.436;-2.518;2022-12-16T11:04:45;40.40;;;21.50;;
48859;SDS011;34679;51.436;-2.518;2022-12-16T11:10:28;35.13;;;21.58;;
48859;SDS011;34679;51.436;-2.518;2022-12-16T11:13:17;36.67;;;20.33;;
48859;SDS011;34679;51.436;-2.518;2022-12-16T11:16:04;34.05;;;20.50;;
48859;SDS011;34679;51.436;-2.518;2022-12-16T11:19:22;40.13;;;22.15;;
48859;SDS011;34679;51.436;-2.518;2022-12-16T11:22:12;34.75;;;21.90;;
48859;SDS011;34679;51.436;-2.518;2022-12-16T11:25:04;36.90;;;22.60;;
48859;SDS011;34679;51.436;-2.518;2022-12-16T11:28:02;36.35;;;23.67;;
48859;SDS011;34679;51.436;-2.518;2022-12-16T11:30:51;35.85;;;22.73;;
48859;SDS011;34679;51.436;-2.518;2022-12-16T11:33:38;33.70;;;21.67;;
48859;SDS011;34679;51.436;-2.518;2022-12-16T11:36:23;33.97;;;21.60;;
48859;SDS011;34679;51.436;-2.518;2022-12-16T11:39:15;39.28;;;21.70;;
48859;SDS011;34679;51.436;-2.518;2022-12-16T11:42:18;33.45;;;22.25;;
48859;SDS011;34679;51.436;-2.518;2022-12-16T11:45:15;32.53;;;21.83;;
48859;SDS011;34679;51.436;-2.518;2022-12-16T11:48:15;41.53;;;23.13;;
48859;SDS011;34679;51.436;-2.518;2022-12-16T11:51:01;38.22;;;22.73;;
48859;SDS011;34679;51.436;-2.518;2022-12-16T11:54:34;36.20;;;22.48;;
48859;SDS011;34679;51.436;-2.518;2022-12-16T11:57:06;37.88;;;23.48;;
48859;SDS011;34679;51.436;-2.518;2022-12-16T12:00:14;31.63;;;20.02;;
48859;SDS011;34679;51.436;-2.518;2022-12-16T12:03:33;37.78;;;21.45;;
48859;SDS011;34679;51.436;-2.518;2022-12-16T12:09:10;43.50;;;23.23;;
48859;SDS011;34679;51.436;-2.518;2022-12-16T12:18:04;38.88;;;23.77;;
48859;SDS011;34679;51.436;-2.518;2022-12-16T12:26:42;42.38;;;23.48;;
48859;SDS011;34679;51.436;-2.518;2022-12-16T12:29:51;42.70;;;23.48;;
48859;SDS011;34679;51.436;-2.518;2022-12-16T12:36:24;40.72;;;20.17;;
48859;SDS011;34679;51.436;-2.518;2022-12-16T12:48:21;27.15;;;16.75;;
48859;SDS011;34679;51.436;-2.518;2022-12-16T12:54:16;22.80;;;14.60;;
48859;SDS011;34679;51.436;-2.518;2022-12-16T12:57:11;20.63;;;13.60;;
48859;SDS011;34679;51.436;-2.518;2022-12-16T12:59:59;24.38;;;13.52;;
48859;SDS011;34679;51.436;-2.518;2022-12-16T13:02:56;26.80;;;14.00;;
48859;SDS011;34679;51.436;-2.518;2022-12-16T13:05:55;21.33;;;13.32;;
48859;SDS011;34679;51.436;-2.518;2022-12-16T13:11:31;24.38;;;13.88;;
48859;SDS011;34679;51.436;-2.518;2022-12-16T13:17:15;25.15;;;15.10;;
48859;SDS011;34679;51.436;-2.518;2022-12-16T13:20:00;23.75;;;14.07;;
48859;SDS011;34679;51.436;-2.518;2022-12-16T13:22:56;28.08;;;14.57;;
48859;SDS011;34679;51.436;-2.518;2022-12-16T13:25:45;23.05;;;12.65;;
48859;SDS011;34679;51.436;-2.518;2022-12-16T13:28:36;20.27;;;13.60;;
48859;SDS011;34679;51.436;-2.518;2022-12-16T13:31:24;29.70;;;14.27;;
48859;SDS011;34679;51.436;-2.518;2022-12-16T13:36:57;25.00;;;13.88;;
48859;SDS011;34679;51.436;-2.518;2022-12-16T13:39:46;27.65;;;14.48;;
48859;SDS011;34679;51.436;-2.518;2022-12-16T13:42:48;20.75;;;11.55;;
48859;SDS011;34679;51.436;-2.518;2022-12-16T13:45:36;26.67;;;15.35;;
48859;SDS011;34679;51.436;-2.518;2022-12-16T13:48:30;26.73;;;15.60;;
48859;SDS011;34679;51.436;-2.518;2022-12-16T13:54:20;27.88;;;15.27;;
48859;SDS011;34679;51.436;-2.518;2022-12-16T13:57:11;23.92;;;15.90;;
48859;SDS011;34679;51.436;-2.518;2022-12-16T14:00:03;32.30;;;18.00;;
48859;SDS011;34679;51.436;-2.518;2022-12-16T14:02:49;31.48;;;17.00;;
48859;SDS011;34679;51.436;-2.518;2022-12-16T14:05:35;28.17;;;16.63;;
48859;SDS011;34679;51.436;-2.518;2022-12-16T14:08:25;31.05;;;16.70;;
48859;SDS011;34679;51.436;-2.518;2022-12-16T14:11:17;27.83;;;17.02;;
48859;SDS011;34679;51.436;-2.518;2022-12-16T14:14:25;31.23;;;19.25;;
48859;SDS011;34679;51.436;-2.518;2022-12-16T14:17:22;33.03;;;18.45;;
48859;SDS011;34679;51.436;-2.518;2022-12-16T14:20:14;40.22;;;19.35;;
48859;SDS011;34679;51.436;-2.518;2022-12-16T14:23:24;40.28;;;19.75;;
48859;SDS011;34679;51.436;-2.518;2022-12-16T14:26:21;35.37;;;20.97;;
48859;SDS011;34679;51.436;-2.518;2022-12-16T14:29:14;36.38;;;20.10;;
48859;SDS011;34679;51.436;-2.518;2022-12-16T14:32:17;43.15;;;21.30;;
48859;SDS011;34679;51.436;-2.518;2022-12-16T14:35:02;33.03;;;20.13;;
48859;SDS011;34679;51.436;-2.518;2022-12-16T14:37:49;38.58;;;21.48;;
48859;SDS011;34679;51.436;-2.518;2022-12-16T14:40:33;48.70;;;23.55;;
48859;SDS011;34679;51.436;-2.518;2022-12-16T14:46:02;39.88;;;22.45;;
48859;SDS011;34679;51.436;-2.518;2022-12-16T14:48:48;41.28;;;22.48;;
48859;SDS011;34679;51.436;-2.518;2022-12-16T14:51:37;39.83;;;22.55;;
48859;SDS011;34679;51.436;-2.518;2022-12-16T14:57:16;37.70;;;22.08;;
48859;SDS011;34679;51.436;-2.518;2022-12-16T15:02:50;38.80;;;22.15;;
48859;SDS011;34679;51.436;-2.518;2022-12-16T15:05:38;34.72;;;20.20;;
48859;SDS011;34679;51.436;-2.518;2022-12-16T15:08:23;36.55;;;21.20;;
48859;SDS011;34679;51.436;-2.518;2022-12-16T15:11:10;32.75;;;20.05;;
48859;SDS011;34679;51.436;-2.518;2022-12-16T15:13:58;34.08;;;19.80;;
48859;SDS011;34679;51.436;-2.518;2022-12-16T15:16:44;34.58;;;20.55;;
48859;SDS011;34679;51.436;-2.518;2022-12-16T15:19:31;36.13;;;20.63;;
48859;SDS011;34679;51.436;-2.518;2022-12-16T15:22:26;30.00;;;19.23;;
48859;SDS011;34679;51.436;-2.518;2022-12-16T15:25:21;37.13;;;20.38;;
48859;SDS011;34679;51.436;-2.518;2022-12-16T15:31:13;41.70;;;20.75;;
48859;SDS011;34679;51.436;-2.518;2022-12-16T15:37:02;53.22;;;23.17;;
48859;SDS011;34679;51.436;-2.518;2022-12-16T15:39:46;36.65;;;19.85;;
48859;SDS011;34679;51.436;-2.518;2022-12-16T15:42:31;31.42;;;17.90;;
48859;SDS011;34679;51.436;-2.518;2022-12-16T15:45:26;29.55;;;16.27;;
48859;SDS011;34679;51.436;-2.518;2022-12-16T15:48:34;35.47;;;18.10;;
48859;SDS011;34679;51.436;-2.518;2022-12-16T15:54:20;34.63;;;19.10;;
48859;SDS011;34679;51.436;-2.518;2022-12-16T16:00:23;38.25;;;20.38;;
48859;SDS011;34679;51.436;-2.518;2022-12-16T16:06:14;43.22;;;22.85;;
48859;SDS011;34679;51.436;-2.518;2022-12-16T16:09:09;36.95;;;22.25;;
48859;SDS011;34679;51.436;-2.518;2022-12-16T16:12:18;52.30;;;28.75;;
48859;SDS011;34679;51.436;-2.518;2022-12-16T16:15:04;59.28;;;30.88;;
48859;SDS011;34679;51.436;-2.518;2022-12-16T16:17:57;40.40;;;24.55;;
48859;SDS011;34679;51.436;-2.518;2022-12-16T16:20:43;36.97;;;17.08;;
48859;SDS011;34679;51.436;-2.518;2022-12-16T16:23:28;49.22;;;23.48;;
48859;SDS011;34679;51.436;-2.518;2022-12-16T16:26:13;50.38;;;24.27;;
48859;SDS011;34679;51.436;-2.518;2022-12-16T16:28:58;42.80;;;24.08;;
48859;SDS011;34679;51.436;-2.518;2022-12-16T16:31:43;37.70;;;21.60;;
48859;SDS011;34679;51.436;-2.518;2022-12-16T16:34:27;42.28;;;21.60;;
48859;SDS011;34679;51.436;-2.518;2022-12-16T16:37:15;38.08;;;21.95;;
48859;SDS011;34679;51.436;-2.518;2022-12-16T16:43:26;49.70;;;23.35;;
48859;SDS011;34679;51.436;-2.518;2022-12-16T16:49:21;53.38;;;27.15;;
48859;SDS011;34679;51.436;-2.518;2022-12-16T16:52:10;53.50;;;26.95;;
48859;SDS011;34679;51.436;-2.518;2022-12-16T16:54:59;60.65;;;30.02;;
48859;SDS011;34679;51.436;-2.518;2022-12-16T16:57:43;63.45;;;33.67;;
48859;SDS011;34679;51.436;-2.518;2022-12-16T17:00:28;58.75;;;34.63;;
48859;SDS011;34679;51.436;-2.518;2022-12-16T17:03:12;59.85;;;33.40;;
48859;SDS011;34679;51.436;-2.518;2022-12-16T17:05:57;54.67;;;31.38;;
48859;SDS011;34679;51.436;-2.518;2022-12-16T17:08:41;59.25;;;33.15;;
48859;SDS011;34679;51.436;-2.518;2022-12-16T17:11:25;66.63;;;33.45;;
48859;SDS011;34679;51.436;-2.518;2022-12-16T17:14:11;59.95;;;31.33;;
48859;SDS011;34679;51.436;-2.518;2022-12-16T17:16:56;55.10;;;30.13;;
48859;SDS011;34679;51.436;-2.518;2022-12-16T17:19:41;59.97;;;31.10;;
48859;SDS011;34679;51.436;-2.518;2022-12-16T17:22:25;58.22;;;28.08;;
48859;SDS011;34679;51.436;-2.518;2022-12-16T17:25:11;58.22;;;30.83;;
48859;SDS011;34679;51.436;-2.518;2022-12-16T17:27:55;52.90;;;28.50;;
48859;SDS011;34679;51.436;-2.518;2022-12-16T17:30:40;52.97;;;28.58;;
48859;SDS011;34679;51.436;-2.518;2022-12-16T17:33:24;46.67;;;23.90;;
48859;SDS011;34679;51.436;-2.518;2022-12-16T17:36:11;58.22;;;30.25;;
48859;SDS011;34679;51.436;-2.518;2022-12-16T17:38:57;62.30;;;31.27;;
48859;SDS011;34679;51.436;-2.518;2022-12-16T17:41:42;59.90;;;30.65;;
48859;SDS011;34679;51.436;-2.518;2022-12-16T17:44:26;54.60;;;28.98;;
48859;SDS011;34679;51.436;-2.518;2022-12-16T17:47:10;65.90;;;32.58;;
48859;SDS011;34679;51.436;-2.518;2022-12-16T17:49:55;55.60;;;28.83;;
48859;SDS011;34679;51.436;-2.518;2022-12-16T17:52:39;59.40;;;31.92;;
48859;SDS011;34679;51.436;-2.518;2022-12-16T17:55:24;57.38;;;31.27;;
48859;SDS011;34679;51.436;-2.518;2022-12-16T17:58:08;64.97;;;31.08;;
48859;SDS011;34679;51.436;-2.518;2022-12-16T18:00:53;57.30;;;30.15;;